Latest Weather Observations for Murganella Airstrip

IDD60801

Issued at 8:35 pm CST Saturday 25 October 2014 (issued every 30 minutes, with the page automatically refreshed every 10 minutes)

About weather observations | Map of weather stations | Latest weather observations for NT | Other Formats
Station Details ID: 014309 Name: MURGANELLA AIRSTRIP Lat: -11.55 Lon: 132.93 Height: 9.5 m
Data from the previous 72 hours. | See also: Recent months for locations in Northern Territory
Date/Time
CST
Temp
°C
App
Temp
°C
Dew
Point
Rel
Hum
%
Delta-T
°C
Wind Press
QNH
hPa
Press
MSL
hPa
Rain
since 9 am
mm
Dir
 
Spd
km/h
Gust
km/h
Spd
kts
Gust
kts
25/08:30pm 24.5 28.2 20.0 76 2.9 N 0 0 0 0 1012.9 1012.8 0.0
25/08:00pm 25.8 29.8 20.6 73 3.4 N 0 0 0 0 1012.6 1012.5 0.0
25/07:30pm 26.3 29.5 20.6 71 3.7 NNE 4 4 2 2 1012.3 1012.2 0.0
25/07:00pm 26.8 29.5 20.6 69 4.1 NNE 7 17 4 9 1012.1 1012.0 0.0
25/06:30pm 27.3 29.5 20.4 66 4.5 NE 9 20 5 11 1012.0 1011.9 0.0
25/06:00pm 27.9 28.7 19.9 61 5.2 NE 15 26 8 14 1011.8 1011.7 0.0
25/05:30pm 28.6 29.0 19.0 56 6.2 NE 15 33 8 18 1011.7 1011.6 0.0
25/05:00pm 29.5 29.5 18.0 50 7.3 NE 15 30 8 16 1011.4 1011.3 0.0
25/04:30pm 29.8 30.1 19.5 54 6.7 NE 17 32 9 17 1011.4 1011.3 0.0
25/04:00pm 30.2 29.1 17.3 46 8.2 NE 19 35 10 19 1011.6 1011.5 0.0
25/03:30pm 31.2 30.9 19.2 48 7.8 NE 19 37 10 20 1011.9 1011.8 0.0
25/03:00pm 30.7 30.1 18.4 47 7.9 ENE 19 33 10 18 1012.0 1011.9 0.0
25/02:30pm 30.7 30.1 18.8 49 7.7 NE 20 32 11 17 1012.1 1012.0 0.0
25/02:00pm 31.2 31.6 18.9 48 8.0 ENE 15 33 8 18 1012.5 1012.4 0.0
25/01:30pm 32.1 31.5 17.6 42 9.3 E 17 32 9 17 1012.8 1012.7 0.0
25/01:00pm 31.8 29.0 14.4 34 10.6 E 22 33 12 18 1013.1 1013.0 0.0
25/12:30pm 31.7 29.3 14.4 35 10.6 E 20 35 11 19 1013.6 1013.5 0.0
25/12:00pm 31.7 30.9 16.0 38 9.8 E 15 26 8 14 1014.3 1014.2 0.0
25/11:30am 31.1 30.6 17.0 42 8.9 E 15 26 8 14 1014.7 1014.6 0.0
25/11:00am 30.9 29.7 16.1 41 9.2 E 17 32 9 17 1014.8 1014.7 0.0
25/10:30am 30.7 30.7 18.1 47 8.1 E 15 24 8 13 1015.0 1014.9 0.0
25/10:00am 29.7 29.9 18.5 51 7.2 ENE 15 28 8 15 1015.0 1014.9 0.0
25/09:30am 29.6 30.9 19.3 54 6.7 ENE 11 19 6 10 1015.2 1015.1 0.0
25/09:00am 29.2 29.0 17.7 50 7.3 E 15 28 8 15 1015.3 1015.2 0.0
25/08:30am 28.4 30.7 19.9 60 5.6 E 7 13 4 7 1015.3 1015.2 0.0
25/08:00am 27.1 29.1 20.0 65 4.6 SE 9 15 5 8 1015.2 1015.1 0.0
25/07:30am 25.8 29.0 21.2 76 3.0 SE 6 11 3 6 1014.9 1014.8 0.0
25/07:00am 24.4 28.4 22.7 90 1.1 SE 6 7 3 4 1014.6 1014.5 0.0
25/06:30am 23.4 27.0 22.0 92 0.9 SSE 6 7 3 4 1014.2 1014.1 0.0
25/06:00am 23.1 26.9 21.0 88 1.4 ESE 2 7 1 4 1013.9 1013.8 0.0
25/05:30am 24.3 28.5 21.8 86 1.7 ESE 2 4 1 2 1013.3 1013.2 0.0
25/05:00am 24.8 29.0 21.7 83 2.1 ESE 2 4 1 2 1013.0 1012.9 0.0
25/04:30am 25.3 29.2 21.8 81 2.3 E 4 9 2 5 1012.7 1012.6 0.0
25/04:00am 25.4 28.9 21.9 81 2.3 E 6 9 3 5 1012.5 1012.4 0.0
25/03:30am 25.7 29.0 21.8 79 2.6 E 7 13 4 7 1012.2 1012.1 0.0
25/03:00am 25.9 28.9 22.0 79 2.6 ENE 9 22 5 12 1012.1 1012.0 0.0
25/02:30am 26.1 28.6 21.7 77 2.9 ENE 11 26 6 14 1012.2 1012.1 0.0
25/02:00am 26.4 29.5 22.9 81 2.4 ENE 11 19 6 10 1012.9 1012.8 0.0
25/01:30am 26.4 29.6 23.1 82 2.2 ENE 11 22 6 12 1012.9 1012.8 0.0
25/01:00am 26.6 29.6 23.3 82 2.3 NE 13 26 7 14 1012.8 1012.7 0.0
25/12:30am 26.5 29.5 23.4 83 2.1 ENE 13 22 7 12 1013.3 1013.2 0.0
25/12:00am 26.4 29.4 23.3 83 2.1 ENE 13 24 7 13 1013.7 1013.6 0.0
 
Date/Time
CST
Temp
°C
App
Temp
°C
Dew
Point
Rel
Hum
%
Delta-T
°C
Wind Press
QNH
hPa
Press
MSL
hPa
Rain
since 9 am
mm
Dir
 
Spd
km/h
Gust
km/h
Spd
kts
Gust
kts
24/11:30pm 26.3 30.1 23.4 84 2.0 ENE 9 17 5 9 1014.0 1013.9 0.0
24/11:00pm 26.3 30.1 23.4 84 2.0 NE 9 17 5 9 1013.6 1013.5 0.0
24/10:30pm 26.2 29.9 23.3 84 2.0 ENE 9 15 5 8 1013.5 1013.4 0.0
24/10:00pm 26.2 29.8 23.1 83 2.1 NE 9 15 5 8 1013.1 1013.0 0.0
24/09:30pm 26.0 30.0 22.7 82 2.2 NNE 6 11 3 6 1012.5 1012.4 0.0
24/09:00pm 26.1 29.9 22.4 80 2.5 NNE 6 15 3 8 1012.1 1012.0 0.0
24/08:30pm 25.9 29.4 21.8 78 2.7 NE 6 9 3 5 1011.9 1011.8 0.0
24/08:00pm 25.9 29.9 22.0 79 2.6 NNE 4 7 2 4 1011.5 1011.4 0.0
24/07:30pm 26.2 30.2 22.1 78 2.7 NE 4 7 2 4 1011.2 1011.1 0.0
24/07:00pm 26.6 29.9 21.8 75 3.2 NE 7 15 4 8 1010.9 1010.8 0.0
24/06:30pm 27.2 29.8 21.9 73 3.6 NE 11 20 6 11 1010.7 1010.6 0.0
24/06:00pm 27.7 29.0 21.7 70 4.0 NE 17 28 9 15 1010.7 1010.6 0.0
24/05:30pm 28.4 30.0 21.4 66 4.7 NE 15 28 8 15 1010.5 1010.4 0.0
24/05:00pm 29.0 30.2 20.7 61 5.5 NE 15 28 8 15 1010.3 1010.2 0.0
24/04:30pm 29.6 31.1 20.5 58 6.0 ENE 13 28 7 15 1010.4 1010.3 0.0
24/04:00pm 30.7 30.5 18.4 47 7.9 ENE 17 30 9 16 1010.3 1010.2 0.0
24/03:30pm 30.8 31.2 19.8 52 7.2 NE 17 28 9 15 1010.5 1010.4 0.0
24/03:00pm 31.0 30.8 19.4 50 7.6 ENE 19 30 10 16 1010.8 1010.7 0.0
24/02:30pm 31.3 31.8 19.3 49 7.9 ENE 15 26 8 14 1011.0 1010.9 0.0
24/02:00pm 30.9 31.2 20.5 54 6.9 NE 19 32 10 17 1011.3 1011.2 0.0
24/01:30pm 31.4 32.6 20.7 53 7.1 NE 15 30 8 16 1011.7 1011.6 0.0
24/01:00pm 31.5 32.4 20.1 50 7.5 ENE 15 26 8 14 1012.1 1012.0 0.0
24/12:30pm 31.2 31.6 19.9 51 7.4 ENE 17 28 9 15 1012.9 1012.8 0.0
24/12:00pm 30.8 32.2 21.0 56 6.5 ENE 15 30 8 16 1013.5 1013.4 0.0
24/11:30am 30.8 32.8 21.6 58 6.2 ENE 13 24 7 13 1013.7 1013.6 0.0
24/11:00am 30.9 32.8 20.5 54 6.9 ENE 11 19 6 10 1013.9 1013.8 0.0
24/10:30am 30.6 32.7 21.7 59 6.0 E 13 20 7 11 1014.1 1014.0 0.0
24/10:00am 30.5 31.9 21.0 57 6.3 E 15 24 8 13 1014.3 1014.2 0.0
24/09:30am 29.7 31.7 20.8 58 5.9 E 11 22 6 12 1014.3 1014.2 0.0
24/09:00am 29.5 33.7 23.4 69 4.2 ESE 7 19 4 10 1014.4 1014.3 0.0
24/08:30am 27.8 32.4 23.8 79 2.8 SE 6 7 3 4 1014.4 1014.3 0.0
24/08:00am 25.8 30.1 23.3 86 1.7 SSE 6 9 3 5 1014.3 1014.2 0.0
24/07:30am 24.4 29.4 23.9 97 0.3 S 4 7 2 4 1014.0 1013.9 0.0
24/07:00am 22.9 28.1 22.9 100 0.0 CALM 0 2 0 1 1013.8 1013.7 0.0
24/06:30am 22.4 27.2 22.2 99 0.1 CALM 0 0 0 0 1013.4 1013.3 0.0
24/06:00am 22.9 28.1 22.9 100 0.0 CALM 0 0 0 0 1013.0 1012.9 0.0
24/05:30am 23.0 27.4 22.8 99 0.1 WSW 4 6 2 3 1012.7 1012.6 0.0
24/05:00am 22.9 27.8 22.4 97 0.3 CALM 0 0 0 0 1012.4 1012.3 0.0
24/04:30am 23.4 28.7 23.1 98 0.2 CALM 0 0 0 0 1012.4 1012.3 0.0
24/04:00am 23.5 28.7 22.8 96 0.5 CALM 0 0 0 0 1012.1 1012.0 0.0
24/03:30am 24.0 28.9 23.1 95 0.6 ESE 2 4 1 2 1011.9 1011.8 0.0
24/03:00am 24.0 28.4 22.8 93 0.8 ESE 4 6 2 3 1011.8 1011.7 0.0
24/02:30am 24.8 29.5 23.4 92 1.0 SE 4 4 2 2 1011.9 1011.8 0.0
24/02:00am 25.1 29.5 23.5 91 1.1 NNE 6 9 3 5 1012.0 1011.9 0.0
24/01:30am 25.5 30.4 23.6 89 1.3 E 4 7 2 4 1012.7 1012.6 0.0
24/01:00am 25.8 30.6 23.5 87 1.6 E 4 7 2 4 1013.1 1013.0 0.0
24/12:30am 26.0 30.3 23.3 85 1.8 ENE 6 9 3 5 1013.4 1013.3 0.0
24/12:00am 26.3 30.2 23.6 85 1.8 NE 9 19 5 10 1013.4 1013.3 0.0
 
Date/Time
CST
Temp
°C
App
Temp
°C
Dew
Point
Rel
Hum
%
Delta-T
°C
Wind Press
QNH
hPa
Press
MSL
hPa
Rain
since 9 am
mm
Dir
 
Spd
km/h
Gust
km/h
Spd
kts
Gust
kts
23/11:30pm 26.4 30.4 23.7 85 1.9 NE 9 19 5 10 1013.8 1013.7 0.0
23/11:00pm 26.2 30.4 23.5 85 1.8 ENE 7 13 4 7 1013.8 1013.7 0.0
23/10:30pm 26.2 29.9 23.3 84 2.0 NE 9 17 5 9 1013.6 1013.5 0.0
23/10:00pm 26.0 30.1 23.3 85 1.8 NE 7 15 4 8 1013.3 1013.2 0.0
23/09:30pm 25.5 30.4 23.0 86 1.7 NNE 2 4 1 2 1013.2 1013.1 0.0
23/09:00pm 25.4 29.5 22.9 86 1.7 NNE 6 7 3 4 1012.6 1012.5 0.0
23/08:30pm 25.5 29.4 22.6 84 2.0 NNE 6 9 3 5 1012.1 1012.0 0.0
23/08:00pm 26.2 30.3 22.3 79 2.6 N 4 6 2 3 1012.0 1011.9 0.0
23/07:30pm 26.4 30.0 22.0 77 2.9 NNE 6 13 3 7 1011.5 1011.4 0.0
23/07:00pm 26.8 30.1 21.8 74 3.3 NNE 7 13 4 7 1011.3 1011.2 0.0
23/06:30pm 27.3 29.7 21.6 71 3.8 NE 11 24 6 13 1011.0 1010.9 0.0
23/06:00pm 27.9 29.5 21.4 67 4.3 NE 15 26 8 14 1010.6 1010.5 0.0
23/05:30pm 28.7 30.1 20.4 60 5.5 NNE 13 24 7 13 1010.2 1010.1 0.0
23/05:00pm 29.7 30.0 18.8 52 7.0 NE 15 26 8 14 1009.9 1009.8 0.0
23/04:30pm 30.5 30.0 17.9 47 8.1 NE 17 28 9 15 1009.8 1009.7 0.0
23/04:00pm 31.2 31.4 18.5 46 8.2 NE 15 24 8 13 1010.1 1010.0 0.0
23/03:30pm 30.8 31.3 19.2 50 7.6 ENE 15 24 8 13 1010.3 1010.2 0.0
23/03:00pm 31.5 30.1 16.6 40 9.4 NE 19 32 10 17 1010.5 1010.4 0.0
23/02:30pm 33.0 32.8 18.4 42 9.5 NE 17 30 9 16 1010.7 1010.6 0.0
23/02:00pm 31.2 32.0 19.9 51 7.4 NE 15 22 8 12 1011.0 1010.9 0.0
23/01:30pm 30.9 31.0 19.9 52 7.2 NNE 19 32 10 17 1011.6 1011.5 0.0
23/01:00pm 31.7 31.2 18.7 46 8.4 E 19 28 10 15 1012.2 1012.1 0.0
23/12:30pm 32.1 31.3 17.2 41 9.5 E 17 26 9 14 1012.6 1012.5 0.0
23/12:00pm 32.0 31.8 16.7 40 9.7 ENE 13 22 7 12 1013.1 1013.0 0.0
23/11:30am 31.4 31.5 18.4 46 8.4 ENE 15 26 8 14 1013.4 1013.3 0.0
23/11:00am 32.1 30.7 15.6 37 10.3 E 17 30 9 16 1013.6 1013.5 0.0
23/10:30am 31.5 31.9 18.1 44 8.6 SE 13 22 7 12 1013.7 1013.6 0.0
23/10:00am 30.3 30.6 19.6 52 7.0 E 17 26 9 14 1014.2 1014.1 0.0
23/09:30am 29.9 31.6 21.0 59 5.9 E 13 24 7 13 1014.3 1014.2 0.0
23/09:00am 28.7 32.8 22.9 71 4.0 E 6 13 3 7 1014.4 1014.3 0.0
23/08:30am 27.5 32.1 23.1 77 3.0 SSE 4 7 2 4 1014.4 1014.3 0.0
23/08:00am 25.7 29.9 23.2 86 1.7 SE 6 9 3 5 1014.3 1014.2 0.0
23/07:30am 24.0 29.3 23.7 98 0.2 S 2 6 1 3 1014.3 1014.2 0.0
23/07:00am 22.0 26.6 21.8 99 0.1 CALM 0 0 0 0 1013.8 1013.7 0.0
23/06:30am 20.8 24.8 20.6 99 0.1 CALM 0 0 0 0 1013.6 1013.5 0.0
23/06:00am 20.8 24.8 20.6 99 0.1 CALM 0 0 0 0 1013.3 1013.2 0.0
23/05:30am 21.0 25.1 20.8 99 0.1 CALM 0 0 0 0 1012.9 1012.8 0.0
23/05:00am 21.0 24.7 20.8 99 0.1 SE 2 4 1 2 1012.5 1012.4 0.0
23/04:30am 21.1 25.1 20.6 97 0.3 CALM 0 0 0 0 1012.2 1012.1 0.0
23/04:00am 21.6 25.6 21.4 99 0.1 S 2 4 1 2 1012.3 1012.2 0.0
23/03:30am 21.4 25.7 21.1 98 0.2 CALM 0 0 0 0 1012.1 1012.0 0.0
23/03:00am 21.0 24.6 20.5 97 0.3 N 2 4 1 2 1012.0 1011.9 0.0
23/02:30am 21.3 25.3 20.5 95 0.5 CALM 0 0 0 0 1012.4 1012.3 0.0
23/02:00am 22.2 26.7 21.5 96 0.5 CALM 0 0 0 0 1013.0 1012.9 0.0
23/01:30am 22.4 27.0 21.7 96 0.5 CALM 0 0 0 0 1013.3 1013.2 0.0
23/01:00am 22.4 27.1 21.9 97 0.3 CALM 0 0 0 0 1013.5 1013.4 0.0
23/12:30am 22.2 26.7 21.5 96 0.5 CALM 0 0 0 0 1013.7 1013.6 0.0
23/12:00am 22.3 26.8 21.6 96 0.5 CALM 0 0 0 0 1013.9 1013.8 0.0
 
Date/Time
CST
Temp
°C
App
Temp
°C
Dew
Point
Rel
Hum
%
Delta-T
°C
Wind Press
QNH
hPa
Press
MSL
hPa
Rain
since 9 am
mm
Dir
 
Spd
km/h
Gust
km/h
Spd
kts
Gust
kts
22/11:30pm 22.3 26.4 20.8 91 1.0 CALM 0 0 0 0 1014.0 1013.9 0.0
22/11:00pm 22.8 27.2 21.3 91 1.0 CALM 0 0 0 0 1013.9 1013.8 0.0
22/10:30pm 23.5 28.3 22.1 92 0.9 CALM 0 0 0 0 1013.8 1013.7 0.0
22/10:00pm 23.8 28.6 22.2 91 1.1 CALM 0 0 0 0 1013.5 1013.4 0.0
22/09:30pm 24.3 29.2 22.4 89 1.3 CALM 0 0 0 0 1013.2 1013.1 0.0
22/09:00pm 24.7 29.5 22.8 89 1.3 NNE 2 4 1 2 1012.9 1012.8 0.0

Other Formats:

Comma delimited format used in spreadsheet applications
http://www.bom.gov.au/fwo/IDD60801/IDD60801.94109.axf

JavaScript Object Notation format (JSON) in row-major order
http://www.bom.gov.au/fwo/IDD60801/IDD60801.94109.json